TABS, Texas Automated Buoy System, NOAA HAZMAT, Ocean Observatory, Real Time Oceanographic Data Supporting Oil Spill Prevention and Response

Texas General Land Office  Texas General
 Land Office
 Oil Spill Prevention
 & Response
Texas Automated Buoy System
Real Time Ocean Observations
Supporting Oil Spill Prevention and Response since 1995
Geochemical and Environmental Research Group

TABS Buoy J -- Texas Automated Buoy System

TABS Buoy J Conditions at 09/19/2014 19:00 UTC (09/19/2014 14:00 CDT)
26° 11.4840'N   97° 3.0420'W
AA3900 DCS - sensor depth 2m
Anemometer height: 4m
Water Depth: 68 feet (20 meters)
Speed: 25.41 cm/s (0.49 kts) Direction: 287 °T (WNW) Water Temp: 29°C (84 °F)
System Voltage: 12.8 V Signal Strength: -2.1 dB Ping Count: 129
Wind: 4.8 m/s (9.3 kts)
          From 151°T (SSE)
Air Temp: 29 °C (83 °F)
Relative Humidity:  N/A
Pressure: 1009.8 mb (29.82 inHg)

  


IMPORTANT: Notice to Mariners


Today's Meteorological Data (download)

   Date   |  Time  |  VEast   North    AirT  AtmPr     Gust   Comp   Tx   Ty    PAR   RelH
          |  (UTC) |  (m/s)|  (m/s)|   (°C)|  (mb) |  (m/s)|  (°M) |    |    |      |  (%) |
==========+========+=======+=======+=======+=======+=======+=======+====+====+======+======+
09/19/2014 00:00:00   -3.20    4.99    28.4 1008.83    7.35   176.4    5    2    0.0 -999.0
09/19/2014 00:30:00   -3.16    4.73    28.3 1008.73    7.50   178.2    5    2    0.0 -999.0
09/19/2014 01:00:00   -3.25    5.01    28.3 1008.99    7.55   178.0    5    2    0.0 -999.0
09/19/2014 01:30:00   -3.79    4.15    28.3 1009.35    7.14   171.0    5    2    0.0 -999.0
09/19/2014 02:00:00   -3.75    4.23    28.2 1009.47    7.00   165.9    5    2    0.0 -999.0
09/19/2014 02:30:00   -4.64    5.13    28.3 1009.96    8.42   161.5    5    2    0.0 -999.0
09/19/2014 03:00:00   -4.10    5.18    28.3 1010.15    8.26   165.3    5    2    0.0 -999.0
09/19/2014 03:30:00   -4.19    5.23    28.3 1010.34    8.40   163.0    5    2    0.0 -999.0
09/19/2014 04:00:00   -4.31    5.09    28.3 1010.69    8.08   163.4    5    2    0.0 -999.0
09/19/2014 04:30:00   -4.41    5.19    28.3 1010.39    8.63   162.7    6    2    0.0 -999.0
09/19/2014 05:00:00   -3.98    5.00    28.3 1010.76    7.79   164.3    5    2    0.0 -999.0
09/19/2014 05:30:00   -4.41    5.31    28.3 1010.80    8.43   162.3    5    2    0.0 -999.0
09/19/2014 06:00:00   -4.24    4.82    28.3 1010.63    8.04   163.8    5    2    0.0 -999.0
09/19/2014 06:30:00   -3.36    5.76    28.2 1010.20    8.32   167.2    5    2    0.0 -999.0
09/19/2014 07:00:00   -3.01    5.85    28.3 1010.14    8.00   170.0    5    2    0.0 -999.0
09/19/2014 07:30:00   -2.14    5.86    28.2 1009.78    7.85   177.1    5    2    0.0 -999.0
09/19/2014 08:00:00   -2.18    5.78    28.1 1009.58    7.81   177.4    5    2    0.0 -999.0
09/19/2014 08:30:00   -2.11    5.44    28.1 1009.30    7.69   178.0    5    2    0.0 -999.0
09/19/2014 09:00:00   -1.62    5.40    28.1 1009.29    6.88   179.8    4    2    0.0 -999.0
09/19/2014 09:30:00   -1.66    5.34    28.1 1009.15    7.27   179.9    5    2    0.0 -999.0
09/19/2014 10:00:00   -0.75    4.91    28.1 1009.15    6.36   184.1    4    2    0.0 -999.0
09/19/2014 10:30:00   -0.97    4.87    28.0 1009.20    6.13   184.8    4    2    0.0 -999.0
09/19/2014 11:00:00   -0.81    4.88    28.0 1009.15    6.18   186.6    4    2    0.0 -999.0
09/19/2014 11:30:00   -0.81    5.07    28.0 1009.15    6.34   185.5    4    2    0.0 -999.0
09/19/2014 12:00:00   -0.32    4.83    27.9 1009.28    6.57   187.3    4    2    0.0 -999.0
09/19/2014 12:30:00   -0.72    4.98    28.0 1009.47    6.24   187.0    4    2    0.0 -999.0
09/19/2014 13:00:00   -1.22    5.38    28.2 1009.79    7.06   182.9    4    2    0.0 -999.0
09/19/2014 13:30:00   -1.10    5.33    28.4 1010.25    6.51   182.9    4    2    0.0 -999.0
09/19/2014 14:00:00   -0.26    4.72    28.5 1010.75    5.98   189.0    4    2    0.0 -999.0
09/19/2014 14:30:00   -0.47    4.76    28.6 1010.89    6.21   188.2    4    2    0.0 -999.0
09/19/2014 15:00:00   -0.05    4.60    28.6 1010.98    5.84   192.1    4    2    0.0 -999.0
09/19/2014 15:30:00   -0.90    4.38    28.5 1011.14    5.65   186.1    4    2    0.0 -999.0
09/19/2014 16:00:00   -1.36    3.79    28.6 1011.32    5.09   185.9    4    2    0.0 -999.0
09/19/2014 16:30:00   -1.41    4.03    28.6 1010.91    5.49   181.0    4    2    0.0 -999.0
09/19/2014 17:00:00   -1.81    4.55    28.6 1010.53    5.98   178.7    4    2    0.0 -999.0
09/19/2014 17:30:00   -2.19    3.58    28.7 1010.49    5.21   181.6    4    2    0.0 -999.0
09/19/2014 18:00:00   -1.76    3.81    28.7 1010.60    5.24   186.4    4    2    0.0 -999.0
09/19/2014 18:30:00   -2.19    3.16    28.6 1010.18    5.01   188.9    4    2    0.0 -999.0
09/19/2014 19:00:00   -2.32    4.20    28.6 1009.84    5.86   181.1    4    2    0.0 -999.0